sensor_id;sensor_type;location;lat;lon;timestamp;temperature;humidity
20829;DHT22;10575;50.124;8.582;2023-03-14T00:01:13;10.60;99.90
20829;DHT22;10575;50.124;8.582;2023-03-14T00:03:40;10.60;99.90
20829;DHT22;10575;50.124;8.582;2023-03-14T00:06:06;10.60;99.90
20829;DHT22;10575;50.124;8.582;2023-03-14T00:08:33;10.60;99.90
20829;DHT22;10575;50.124;8.582;2023-03-14T00:11:24;10.60;99.90
20829;DHT22;10575;50.124;8.582;2023-03-14T00:13:50;10.70;99.90
20829;DHT22;10575;50.124;8.582;2023-03-14T00:16:16;10.70;99.90
20829;DHT22;10575;50.124;8.582;2023-03-14T00:18:42;10.70;99.90
20829;DHT22;10575;50.124;8.582;2023-03-14T00:21:09;10.70;99.90
20829;DHT22;10575;50.124;8.582;2023-03-14T00:23:37;10.70;99.90
20829;DHT22;10575;50.124;8.582;2023-03-14T00:26:05;10.70;99.90
20829;DHT22;10575;50.124;8.582;2023-03-14T00:28:31;10.60;99.90
20829;DHT22;10575;50.124;8.582;2023-03-14T00:30:57;10.50;99.90
20829;DHT22;10575;50.124;8.582;2023-03-14T00:33:23;10.50;99.90
20829;DHT22;10575;50.124;8.582;2023-03-14T00:35:57;10.40;99.90
20829;DHT22;10575;50.124;8.582;2023-03-14T00:38:23;10.40;99.90
20829;DHT22;10575;50.124;8.582;2023-03-14T00:40:50;10.30;99.90
20829;DHT22;10575;50.124;8.582;2023-03-14T00:43:15;10.40;99.90
20829;DHT22;10575;50.124;8.582;2023-03-14T00:45:41;10.30;99.90
20829;DHT22;10575;50.124;8.582;2023-03-14T00:48:06;10.40;99.90
20829;DHT22;10575;50.124;8.582;2023-03-14T00:50:32;10.40;99.90
20829;DHT22;10575;50.124;8.582;2023-03-14T00:52:57;10.40;99.90
20829;DHT22;10575;50.124;8.582;2023-03-14T00:55:24;10.40;99.90
20829;DHT22;10575;50.124;8.582;2023-03-14T00:57:50;10.40;99.90
20829;DHT22;10575;50.124;8.582;2023-03-14T01:00:15;10.50;99.90
20829;DHT22;10575;50.124;8.582;2023-03-14T01:02:41;10.60;99.90
20829;DHT22;10575;50.124;8.582;2023-03-14T01:05:07;10.50;99.90
20829;DHT22;10575;50.124;8.582;2023-03-14T01:07:33;10.40;99.90
20829;DHT22;10575;50.124;8.582;2023-03-14T01:09:58;10.30;99.90
20829;DHT22;10575;50.124;8.582;2023-03-14T01:12:24;10.20;99.90
20829;DHT22;10575;50.124;8.582;2023-03-14T01:14:49;10.30;99.90
20829;DHT22;10575;50.124;8.582;2023-03-14T01:17:15;10.40;99.90
20829;DHT22;10575;50.124;8.582;2023-03-14T01:19:40;10.50;99.90
20829;DHT22;10575;50.124;8.582;2023-03-14T01:22:06;10.50;99.90
20829;DHT22;10575;50.124;8.582;2023-03-14T01:24:31;10.70;99.90
20829;DHT22;10575;50.124;8.582;2023-03-14T01:26:57;10.70;99.90
20829;DHT22;10575;50.124;8.582;2023-03-14T01:29:22;10.70;99.90
20829;DHT22;10575;50.124;8.582;2023-03-14T01:31:48;10.70;99.90
20829;DHT22;10575;50.124;8.582;2023-03-14T01:34:13;10.60;99.90
20829;DHT22;10575;50.124;8.582;2023-03-14T01:36:39;10.70;99.90
20829;DHT22;10575;50.124;8.582;2023-03-14T01:39:04;10.80;99.90
20829;DHT22;10575;50.124;8.582;2023-03-14T01:41:31;10.80;99.90
20829;DHT22;10575;50.124;8.582;2023-03-14T01:43:57;10.90;99.90
20829;DHT22;10575;50.124;8.582;2023-03-14T01:46:34;10.80;99.90
20829;DHT22;10575;50.124;8.582;2023-03-14T01:54:14;10.90;99.90
20829;DHT22;10575;50.124;8.582;2023-03-14T01:56:44;10.90;99.90
20829;DHT22;10575;50.124;8.582;2023-03-14T01:59:11;10.90;99.90
20829;DHT22;10575;50.124;8.582;2023-03-14T02:01:37;10.80;99.90
20829;DHT22;10575;50.124;8.582;2023-03-14T02:04:05;10.80;99.90
20829;DHT22;10575;50.124;8.582;2023-03-14T02:06:39;10.70;99.90
20829;DHT22;10575;50.124;8.582;2023-03-14T02:09:06;10.80;99.90
20829;DHT22;10575;50.124;8.582;2023-03-14T02:11:32;10.70;99.90
20829;DHT22;10575;50.124;8.582;2023-03-14T02:13:59;10.70;99.90
20829;DHT22;10575;50.124;8.582;2023-03-14T02:16:24;10.80;99.90
20829;DHT22;10575;50.124;8.582;2023-03-14T02:18:50;10.80;99.90
20829;DHT22;10575;50.124;8.582;2023-03-14T02:21:44;10.90;99.90
20829;DHT22;10575;50.124;8.582;2023-03-14T02:24:46;10.90;99.90
20829;DHT22;10575;50.124;8.582;2023-03-14T02:27:17;11.00;99.90
20829;DHT22;10575;50.124;8.582;2023-03-14T02:29:52;11.00;99.90
20829;DHT22;10575;50.124;8.582;2023-03-14T02:32:19;11.00;99.90
20829;DHT22;10575;50.124;8.582;2023-03-14T02:34:48;11.00;99.90
20829;DHT22;10575;50.124;8.582;2023-03-14T02:37:16;11.00;99.90
20829;DHT22;10575;50.124;8.582;2023-03-14T02:39:45;11.00;99.90
20829;DHT22;10575;50.124;8.582;2023-03-14T02:42:12;11.00;99.90
20829;DHT22;10575;50.124;8.582;2023-03-14T02:44:52;11.00;99.90
20829;DHT22;10575;50.124;8.582;2023-03-14T02:47:21;10.90;99.90
20829;DHT22;10575;50.124;8.582;2023-03-14T02:49:47;10.90;99.90
20829;DHT22;10575;50.124;8.582;2023-03-14T02:52:13;10.80;99.90
20829;DHT22;10575;50.124;8.582;2023-03-14T02:54:39;10.80;99.90
20829;DHT22;10575;50.124;8.582;2023-03-14T02:57:04;10.80;99.90
20829;DHT22;10575;50.124;8.582;2023-03-14T02:59:30;10.80;99.90
20829;DHT22;10575;50.124;8.582;2023-03-14T03:01:55;10.80;99.90
20829;DHT22;10575;50.124;8.582;2023-03-14T03:04:21;10.80;99.90
20829;DHT22;10575;50.124;8.582;2023-03-14T03:06:46;10.90;99.90
20829;DHT22;10575;50.124;8.582;2023-03-14T03:09:12;10.90;99.90
20829;DHT22;10575;50.124;8.582;2023-03-14T03:11:37;10.90;99.90
20829;DHT22;10575;50.124;8.582;2023-03-14T03:14:03;11.00;99.90
20829;DHT22;10575;50.124;8.582;2023-03-14T03:16:28;11.00;99.90
20829;DHT22;10575;50.124;8.582;2023-03-14T03:18:54;11.00;99.90
20829;DHT22;10575;50.124;8.582;2023-03-14T03:21:19;11.00;99.90
20829;DHT22;10575;50.124;8.582;2023-03-14T03:23:48;10.90;99.90
20829;DHT22;10575;50.124;8.582;2023-03-14T03:26:14;10.90;99.90
20829;DHT22;10575;50.124;8.582;2023-03-14T03:28:39;10.80;99.90
20829;DHT22;10575;50.124;8.582;2023-03-14T03:31:09;10.80;99.90
20829;DHT22;10575;50.124;8.582;2023-03-14T03:33:36;10.80;99.90
20829;DHT22;10575;50.124;8.582;2023-03-14T03:36:02;10.80;99.90
20829;DHT22;10575;50.124;8.582;2023-03-14T03:38:27;10.90;99.90
20829;DHT22;10575;50.124;8.582;2023-03-14T03:40:53;10.90;99.90
20829;DHT22;10575;50.124;8.582;2023-03-14T03:43:18;10.80;99.90
20829;DHT22;10575;50.124;8.582;2023-03-14T03:45:44;10.90;99.90
20829;DHT22;10575;50.124;8.582;2023-03-14T03:48:09;10.90;99.90
20829;DHT22;10575;50.124;8.582;2023-03-14T03:50:35;10.90;99.90
20829;DHT22;10575;50.124;8.582;2023-03-14T03:53:01;11.00;99.90
20829;DHT22;10575;50.124;8.582;2023-03-14T03:55:26;10.90;99.90
20829;DHT22;10575;50.124;8.582;2023-03-14T03:57:53;10.90;99.90
20829;DHT22;10575;50.124;8.582;2023-03-14T04:00:19;10.80;99.90
20829;DHT22;10575;50.124;8.582;2023-03-14T04:02:44;10.80;99.90
20829;DHT22;10575;50.124;8.582;2023-03-14T04:05:10;10.80;99.90
20829;DHT22;10575;50.124;8.582;2023-03-14T04:07:35;10.80;99.90
20829;DHT22;10575;50.124;8.582;2023-03-14T04:10:01;10.70;99.90
20829;DHT22;10575;50.124;8.582;2023-03-14T04:12:27;10.70;99.90
20829;DHT22;10575;50.124;8.582;2023-03-14T04:14:52;10.70;99.90
20829;DHT22;10575;50.124;8.582;2023-03-14T04:17:18;10.80;99.90
20829;DHT22;10575;50.124;8.582;2023-03-14T04:19:43;10.90;99.90
20829;DHT22;10575;50.124;8.582;2023-03-14T04:22:09;10.80;99.90
20829;DHT22;10575;50.124;8.582;2023-03-14T04:24:34;10.80;99.90
20829;DHT22;10575;50.124;8.582;2023-03-14T04:27:00;10.90;99.90
20829;DHT22;10575;50.124;8.582;2023-03-14T04:29:25;10.90;99.90
20829;DHT22;10575;50.124;8.582;2023-03-14T04:31:51;10.90;99.90
20829;DHT22;10575;50.124;8.582;2023-03-14T04:34:16;10.90;99.90
20829;DHT22;10575;50.124;8.582;2023-03-14T04:36:42;10.90;99.90
20829;DHT22;10575;50.124;8.582;2023-03-14T04:39:07;11.00;99.90
20829;DHT22;10575;50.124;8.582;2023-03-14T04:41:33;11.00;99.90
20829;DHT22;10575;50.124;8.582;2023-03-14T04:43:58;11.00;99.90
20829;DHT22;10575;50.124;8.582;2023-03-14T04:46:24;10.90;99.90
20829;DHT22;10575;50.124;8.582;2023-03-14T04:48:49;11.00;99.90
20829;DHT22;10575;50.124;8.582;2023-03-14T04:51:15;11.00;99.90
20829;DHT22;10575;50.124;8.582;2023-03-14T04:53:40;11.00;99.90
20829;DHT22;10575;50.124;8.582;2023-03-14T04:56:06;10.80;99.90
20829;DHT22;10575;50.124;8.582;2023-03-14T04:58:32;10.70;99.90
20829;DHT22;10575;50.124;8.582;2023-03-14T05:01:05;10.80;99.90
20829;DHT22;10575;50.124;8.582;2023-03-14T05:03:31;10.80;99.90
20829;DHT22;10575;50.124;8.582;2023-03-14T05:05:56;10.80;99.90
20829;DHT22;10575;50.124;8.582;2023-03-14T05:08:23;10.90;99.90
20829;DHT22;10575;50.124;8.582;2023-03-14T05:10:54;10.90;99.90
20829;DHT22;10575;50.124;8.582;2023-03-14T05:13:20;10.90;99.90
20829;DHT22;10575;50.124;8.582;2023-03-14T05:15:45;10.90;99.90
20829;DHT22;10575;50.124;8.582;2023-03-14T05:18:11;11.00;99.90
20829;DHT22;10575;50.124;8.582;2023-03-14T05:20:37;10.90;99.90
20829;DHT22;10575;50.124;8.582;2023-03-14T05:23:02;10.80;99.90
20829;DHT22;10575;50.124;8.582;2023-03-14T05:25:28;10.80;99.90
20829;DHT22;10575;50.124;8.582;2023-03-14T05:27:54;10.70;99.90
20829;DHT22;10575;50.124;8.582;2023-03-14T05:30:20;10.80;99.90
20829;DHT22;10575;50.124;8.582;2023-03-14T05:32:47;10.70;99.90
20829;DHT22;10575;50.124;8.582;2023-03-14T05:35:13;10.80;99.90
20829;DHT22;10575;50.124;8.582;2023-03-14T05:37:38;10.70;99.90
20829;DHT22;10575;50.124;8.582;2023-03-14T05:40:05;10.60;99.90
20829;DHT22;10575;50.124;8.582;2023-03-14T05:42:32;10.60;99.90
20829;DHT22;10575;50.124;8.582;2023-03-14T05:44:57;10.60;99.90
20829;DHT22;10575;50.124;8.582;2023-03-14T05:47:23;10.60;99.90
20829;DHT22;10575;50.124;8.582;2023-03-14T05:49:49;10.70;99.90
20829;DHT22;10575;50.124;8.582;2023-03-14T05:52:14;10.60;99.90
20829;DHT22;10575;50.124;8.582;2023-03-14T05:54:40;10.60;99.90
20829;DHT22;10575;50.124;8.582;2023-03-14T05:57:06;10.70;99.90
20829;DHT22;10575;50.124;8.582;2023-03-14T05:59:32;10.70;99.90
20829;DHT22;10575;50.124;8.582;2023-03-14T06:01:57;10.70;99.90
20829;DHT22;10575;50.124;8.582;2023-03-14T06:04:24;10.70;99.90
20829;DHT22;10575;50.124;8.582;2023-03-14T06:06:50;10.70;99.90
20829;DHT22;10575;50.124;8.582;2023-03-14T06:09:15;10.70;99.90
20829;DHT22;10575;50.124;8.582;2023-03-14T06:11:41;10.80;99.90
20829;DHT22;10575;50.124;8.582;2023-03-14T06:14:06;10.80;99.90
20829;DHT22;10575;50.124;8.582;2023-03-14T06:16:32;10.70;99.90
20829;DHT22;10575;50.124;8.582;2023-03-14T06:18:57;10.80;99.90
20829;DHT22;10575;50.124;8.582;2023-03-14T06:21:23;10.70;99.90
20829;DHT22;10575;50.124;8.582;2023-03-14T06:23:48;10.80;99.90
20829;DHT22;10575;50.124;8.582;2023-03-14T06:26:14;10.70;99.90
20829;DHT22;10575;50.124;8.582;2023-03-14T06:28:39;10.80;99.90
20829;DHT22;10575;50.124;8.582;2023-03-14T06:31:05;10.80;99.90
20829;DHT22;10575;50.124;8.582;2023-03-14T06:33:31;10.80;99.90
20829;DHT22;10575;50.124;8.582;2023-03-14T06:35:56;10.70;99.90
20829;DHT22;10575;50.124;8.582;2023-03-14T06:38:22;10.80;99.90
20829;DHT22;10575;50.124;8.582;2023-03-14T06:40:47;10.90;99.90
20829;DHT22;10575;50.124;8.582;2023-03-14T06:43:13;10.90;99.90
20829;DHT22;10575;50.124;8.582;2023-03-14T06:45:38;11.00;99.90
20829;DHT22;10575;50.124;8.582;2023-03-14T06:48:04;10.90;99.90
20829;DHT22;10575;50.124;8.582;2023-03-14T06:50:30;10.90;99.90
20829;DHT22;10575;50.124;8.582;2023-03-14T06:52:55;10.90;99.90
20829;DHT22;10575;50.124;8.582;2023-03-14T06:55:21;10.80;99.90
20829;DHT22;10575;50.124;8.582;2023-03-14T06:57:46;10.90;99.90
20829;DHT22;10575;50.124;8.582;2023-03-14T07:00:13;10.90;99.90
20829;DHT22;10575;50.124;8.582;2023-03-14T07:02:39;10.90;99.90
20829;DHT22;10575;50.124;8.582;2023-03-14T07:05:06;10.90;99.90
20829;DHT22;10575;50.124;8.582;2023-03-14T07:07:32;10.90;99.90
20829;DHT22;10575;50.124;8.582;2023-03-14T07:09:57;11.00;99.90
20829;DHT22;10575;50.124;8.582;2023-03-14T07:12:23;11.10;99.90
20829;DHT22;10575;50.124;8.582;2023-03-14T07:14:48;11.10;99.90
20829;DHT22;10575;50.124;8.582;2023-03-14T07:17:14;11.10;99.90
20829;DHT22;10575;50.124;8.582;2023-03-14T07:19:39;11.00;99.90
20829;DHT22;10575;50.124;8.582;2023-03-14T07:22:05;11.00;99.90
20829;DHT22;10575;50.124;8.582;2023-03-14T07:24:31;11.10;99.90
20829;DHT22;10575;50.124;8.582;2023-03-14T07:26:56;11.30;99.90
20829;DHT22;10575;50.124;8.582;2023-03-14T07:29:22;11.30;99.90
20829;DHT22;10575;50.124;8.582;2023-03-14T07:31:47;11.30;99.90
20829;DHT22;10575;50.124;8.582;2023-03-14T07:34:13;11.20;99.90
20829;DHT22;10575;50.124;8.582;2023-03-14T07:36:39;11.20;99.90
20829;DHT22;10575;50.124;8.582;2023-03-14T07:39:04;11.20;99.90
20829;DHT22;10575;50.124;8.582;2023-03-14T07:41:30;11.20;99.90
20829;DHT22;10575;50.124;8.582;2023-03-14T07:43:56;11.10;99.90
20829;DHT22;10575;50.124;8.582;2023-03-14T07:46:21;11.10;99.90
20829;DHT22;10575;50.124;8.582;2023-03-14T07:48:47;11.10;99.90
20829;DHT22;10575;50.124;8.582;2023-03-14T07:51:13;11.20;99.90
20829;DHT22;10575;50.124;8.582;2023-03-14T07:53:38;11.10;99.90
20829;DHT22;10575;50.124;8.582;2023-03-14T07:56:05;11.10;99.90
20829;DHT22;10575;50.124;8.582;2023-03-14T07:58:31;11.10;99.90
20829;DHT22;10575;50.124;8.582;2023-03-14T08:00:58;11.10;99.90
20829;DHT22;10575;50.124;8.582;2023-03-14T08:03:24;11.20;99.90
20829;DHT22;10575;50.124;8.582;2023-03-14T08:05:50;11.20;99.90
20829;DHT22;10575;50.124;8.582;2023-03-14T08:08:16;11.20;99.90
20829;DHT22;10575;50.124;8.582;2023-03-14T08:10:42;11.30;99.90
20829;DHT22;10575;50.124;8.582;2023-03-14T08:13:09;11.40;99.90
20829;DHT22;10575;50.124;8.582;2023-03-14T08:15:34;11.50;99.90
20829;DHT22;10575;50.124;8.582;2023-03-14T08:18:00;11.50;99.90
20829;DHT22;10575;50.124;8.582;2023-03-14T08:20:28;11.40;99.90
20829;DHT22;10575;50.124;8.582;2023-03-14T08:22:59;11.30;99.90
20829;DHT22;10575;50.124;8.582;2023-03-14T08:25:25;11.30;99.90
20829;DHT22;10575;50.124;8.582;2023-03-14T08:27:51;11.30;99.90
20829;DHT22;10575;50.124;8.582;2023-03-14T08:30:18;11.20;99.90
20829;DHT22;10575;50.124;8.582;2023-03-14T08:32:44;11.20;99.90
20829;DHT22;10575;50.124;8.582;2023-03-14T08:35:11;11.20;99.90
20829;DHT22;10575;50.124;8.582;2023-03-14T08:37:37;11.20;99.90
20829;DHT22;10575;50.124;8.582;2023-03-14T08:40:05;11.30;99.90
20829;DHT22;10575;50.124;8.582;2023-03-14T08:42:41;11.40;99.90
20829;DHT22;10575;50.124;8.582;2023-03-14T08:45:07;11.40;99.90
20829;DHT22;10575;50.124;8.582;2023-03-14T08:47:33;11.40;99.90
20829;DHT22;10575;50.124;8.582;2023-03-14T08:49:59;11.40;99.90
20829;DHT22;10575;50.124;8.582;2023-03-14T08:52:24;11.40;99.90
20829;DHT22;10575;50.124;8.582;2023-03-14T08:54:50;11.50;99.90
20829;DHT22;10575;50.124;8.582;2023-03-14T08:57:22;11.70;99.90
20829;DHT22;10575;50.124;8.582;2023-03-14T08:59:55;12.00;99.90
20829;DHT22;10575;50.124;8.582;2023-03-14T09:02:22;12.20;99.90
20829;DHT22;10575;50.124;8.582;2023-03-14T09:04:49;12.30;99.90
20829;DHT22;10575;50.124;8.582;2023-03-14T09:07:15;12.20;99.90
20829;DHT22;10575;50.124;8.582;2023-03-14T09:09:40;12.10;99.90
20829;DHT22;10575;50.124;8.582;2023-03-14T09:12:06;11.90;99.90
20829;DHT22;10575;50.124;8.582;2023-03-14T09:14:31;11.90;99.90
20829;DHT22;10575;50.124;8.582;2023-03-14T09:16:57;12.00;99.90
20829;DHT22;10575;50.124;8.582;2023-03-14T09:19:23;12.40;99.90
20829;DHT22;10575;50.124;8.582;2023-03-14T09:21:48;12.90;99.90
20829;DHT22;10575;50.124;8.582;2023-03-14T09:24:14;13.00;99.90
20829;DHT22;10575;50.124;8.582;2023-03-14T09:26:40;13.00;99.90
20829;DHT22;10575;50.124;8.582;2023-03-14T09:29:05;12.90;99.90
20829;DHT22;10575;50.124;8.582;2023-03-14T09:31:31;12.90;99.90
20829;DHT22;10575;50.124;8.582;2023-03-14T09:33:56;12.90;99.90
20829;DHT22;10575;50.124;8.582;2023-03-14T09:36:22;12.80;99.90
20829;DHT22;10575;50.124;8.582;2023-03-14T09:38:48;12.70;99.90
20829;DHT22;10575;50.124;8.582;2023-03-14T09:41:34;12.70;99.90
20829;DHT22;10575;50.124;8.582;2023-03-14T09:44:11;12.70;99.90
20829;DHT22;10575;50.124;8.582;2023-03-14T09:46:38;12.50;99.90
20829;DHT22;10575;50.124;8.582;2023-03-14T09:49:20;12.40;99.90
20829;DHT22;10575;50.124;8.582;2023-03-14T09:51:49;12.50;99.90
20829;DHT22;10575;50.124;8.582;2023-03-14T09:54:39;12.40;99.90
20829;DHT22;10575;50.124;8.582;2023-03-14T09:57:12;12.40;99.90
20829;DHT22;10575;50.124;8.582;2023-03-14T09:59:39;12.40;99.90
20829;DHT22;10575;50.124;8.582;2023-03-14T10:02:16;12.30;99.90
20829;DHT22;10575;50.124;8.582;2023-03-14T10:04:45;12.30;99.90
20829;DHT22;10575;50.124;8.582;2023-03-14T10:07:21;12.60;99.90
20829;DHT22;10575;50.124;8.582;2023-03-14T10:09:50;12.90;99.90
20829;DHT22;10575;50.124;8.582;2023-03-14T10:12:34;13.00;99.90
20829;DHT22;10575;50.124;8.582;2023-03-14T10:15:11;13.00;99.90
20829;DHT22;10575;50.124;8.582;2023-03-14T10:17:43;13.00;99.90
20829;DHT22;10575;50.124;8.582;2023-03-14T10:20:31;12.80;99.90
20829;DHT22;10575;50.124;8.582;2023-03-14T10:23:02;12.80;99.90
20829;DHT22;10575;50.124;8.582;2023-03-14T10:25:33;12.90;99.90
20829;DHT22;10575;50.124;8.582;2023-03-14T10:27:59;12.90;99.90
20829;DHT22;10575;50.124;8.582;2023-03-14T10:32:56;12.90;99.90
20829;DHT22;10575;50.124;8.582;2023-03-14T10:35:23;13.00;99.90
20829;DHT22;10575;50.124;8.582;2023-03-14T10:37:57;12.90;99.90
20829;DHT22;10575;50.124;8.582;2023-03-14T10:40:38;12.80;99.90
20829;DHT22;10575;50.124;8.582;2023-03-14T10:43:05;12.70;99.90
20829;DHT22;10575;50.124;8.582;2023-03-14T10:45:36;12.70;99.90
20829;DHT22;10575;50.124;8.582;2023-03-14T10:48:18;12.70;99.90
20829;DHT22;10575;50.124;8.582;2023-03-14T10:53:17;12.60;99.90
20829;DHT22;10575;50.124;8.582;2023-03-14T10:55:44;12.40;99.90
20829;DHT22;10575;50.124;8.582;2023-03-14T10:58:24;12.40;99.90
20829;DHT22;10575;50.124;8.582;2023-03-14T11:03:39;12.30;99.90
20829;DHT22;10575;50.124;8.582;2023-03-14T11:06:18;12.20;99.90
20829;DHT22;10575;50.124;8.582;2023-03-14T11:09:06;12.10;99.90
20829;DHT22;10575;50.124;8.582;2023-03-14T11:11:33;12.00;99.90
20829;DHT22;10575;50.124;8.582;2023-03-14T11:14:11;12.00;99.90
20829;DHT22;10575;50.124;8.582;2023-03-14T11:19:23;12.00;99.90
20829;DHT22;10575;50.124;8.582;2023-03-14T11:25:12;11.80;99.90
20829;DHT22;10575;50.124;8.582;2023-03-14T11:27:42;11.70;99.90
20829;DHT22;10575;50.124;8.582;2023-03-14T11:30:32;11.70;99.90
20829;DHT22;10575;50.124;8.582;2023-03-14T11:33:17;11.70;99.90
20829;DHT22;10575;50.124;8.582;2023-03-14T11:36:08;11.80;99.90
20829;DHT22;10575;50.124;8.582;2023-03-14T11:38:43;11.90;99.90
20829;DHT22;10575;50.124;8.582;2023-03-14T11:41:41;12.00;99.90
20829;DHT22;10575;50.124;8.582;2023-03-14T11:44:30;12.10;99.90
20829;DHT22;10575;50.124;8.582;2023-03-14T11:47:11;12.00;99.90
20829;DHT22;10575;50.124;8.582;2023-03-14T11:52:34;11.80;99.90
20829;DHT22;10575;50.124;8.582;2023-03-14T11:55:32;11.90;99.90
20829;DHT22;10575;50.124;8.582;2023-03-14T12:00:47;12.10;99.90
20829;DHT22;10575;50.124;8.582;2023-03-14T12:03:34;12.00;99.90
20829;DHT22;10575;50.124;8.582;2023-03-14T12:06:22;11.80;99.90
20829;DHT22;10575;50.124;8.582;2023-03-14T12:09:02;11.50;99.90
20829;DHT22;10575;50.124;8.582;2023-03-14T12:11:53;11.10;99.90
20829;DHT22;10575;50.124;8.582;2023-03-14T12:14:32;10.80;99.90
20829;DHT22;10575;50.124;8.582;2023-03-14T12:17:07;10.60;99.90
20829;DHT22;10575;50.124;8.582;2023-03-14T12:19:42;10.50;99.90
20829;DHT22;10575;50.124;8.582;2023-03-14T12:22:29;10.30;99.90
20829;DHT22;10575;50.124;8.582;2023-03-14T12:25:03;10.20;99.90
20829;DHT22;10575;50.124;8.582;2023-03-14T12:30:30;10.60;99.90
20829;DHT22;10575;50.124;8.582;2023-03-14T12:35:50;10.80;99.90
20829;DHT22;10575;50.124;8.582;2023-03-14T12:41:14;11.20;99.90
20829;DHT22;10575;50.124;8.582;2023-03-14T12:43:40;11.40;99.90
20829;DHT22;10575;50.124;8.582;2023-03-14T12:48:49;11.70;99.90
20829;DHT22;10575;50.124;8.582;2023-03-14T12:51:19;11.80;99.90
20829;DHT22;10575;50.124;8.582;2023-03-14T13:01:33;11.80;99.90
20829;DHT22;10575;50.124;8.582;2023-03-14T13:04:07;11.70;99.90
20829;DHT22;10575;50.124;8.582;2023-03-14T13:06:50;11.80;99.90
20829;DHT22;10575;50.124;8.582;2023-03-14T13:12:03;11.80;99.90
20829;DHT22;10575;50.124;8.582;2023-03-14T13:14:33;11.70;99.90
20829;DHT22;10575;50.124;8.582;2023-03-14T13:17:02;11.70;99.90
20829;DHT22;10575;50.124;8.582;2023-03-14T13:19:30;11.50;99.90
20829;DHT22;10575;50.124;8.582;2023-03-14T13:22:05;11.50;99.90
20829;DHT22;10575;50.124;8.582;2023-03-14T13:24:34;11.60;99.90
20829;DHT22;10575;50.124;8.582;2023-03-14T13:27:00;11.70;99.90
20829;DHT22;10575;50.124;8.582;2023-03-14T13:29:30;11.80;99.90
20829;DHT22;10575;50.124;8.582;2023-03-14T13:31:59;11.90;99.90
20829;DHT22;10575;50.124;8.582;2023-03-14T13:34:30;12.10;99.90
20829;DHT22;10575;50.124;8.582;2023-03-14T13:36:56;12.20;99.90
20829;DHT22;10575;50.124;8.582;2023-03-14T13:39:24;12.20;99.90
20829;DHT22;10575;50.124;8.582;2023-03-14T13:42:00;12.30;99.90
20829;DHT22;10575;50.124;8.582;2023-03-14T13:44:38;12.20;99.90
20829;DHT22;10575;50.124;8.582;2023-03-14T13:47:09;12.30;99.90
20829;DHT22;10575;50.124;8.582;2023-03-14T13:49:36;12.40;99.90
20829;DHT22;10575;50.124;8.582;2023-03-14T13:52:03;12.20;99.90
20829;DHT22;10575;50.124;8.582;2023-03-14T13:54:31;12.00;99.90
20829;DHT22;10575;50.124;8.582;2023-03-14T13:57:01;11.70;99.90
20829;DHT22;10575;50.124;8.582;2023-03-14T13:59:36;11.40;99.90
20829;DHT22;10575;50.124;8.582;2023-03-14T14:02:12;11.20;99.90
20829;DHT22;10575;50.124;8.582;2023-03-14T14:04:38;11.00;99.90
20829;DHT22;10575;50.124;8.582;2023-03-14T14:07:09;10.90;99.90
20829;DHT22;10575;50.124;8.582;2023-03-14T14:09:39;10.80;99.90
20829;DHT22;10575;50.124;8.582;2023-03-14T14:12:08;10.80;99.90
20829;DHT22;10575;50.124;8.582;2023-03-14T14:17:37;10.80;99.90
20829;DHT22;10575;50.124;8.582;2023-03-14T14:20:07;11.00;99.90
20829;DHT22;10575;50.124;8.582;2023-03-14T14:22:33;11.20;99.90
20829;DHT22;10575;50.124;8.582;2023-03-14T14:25:00;11.50;99.90
20829;DHT22;10575;50.124;8.582;2023-03-14T14:27:42;11.40;99.90
20829;DHT22;10575;50.124;8.582;2023-03-14T14:32:43;11.10;99.90
20829;DHT22;10575;50.124;8.582;2023-03-14T14:35:22;11.10;99.90
20829;DHT22;10575;50.124;8.582;2023-03-14T14:37:48;10.70;99.90
20829;DHT22;10575;50.124;8.582;2023-03-14T14:40:20;10.50;99.90
20829;DHT22;10575;50.124;8.582;2023-03-14T14:42:47;10.40;99.90
20829;DHT22;10575;50.124;8.582;2023-03-14T14:45:17;10.30;99.90
20829;DHT22;10575;50.124;8.582;2023-03-14T14:47:54;10.30;99.90
20829;DHT22;10575;50.124;8.582;2023-03-14T14:53:25;9.80;99.90
20829;DHT22;10575;50.124;8.582;2023-03-14T14:56:00;9.60;99.90
20829;DHT22;10575;50.124;8.582;2023-03-14T14:58:29;9.50;99.90
20829;DHT22;10575;50.124;8.582;2023-03-14T15:01:18;9.50;99.90
20829;DHT22;10575;50.124;8.582;2023-03-14T15:03:46;9.20;99.90
20829;DHT22;10575;50.124;8.582;2023-03-14T15:06:14;9.10;99.90
20829;DHT22;10575;50.124;8.582;2023-03-14T15:08:40;9.00;99.90
20829;DHT22;10575;50.124;8.582;2023-03-14T15:11:06;9.20;99.90
20829;DHT22;10575;50.124;8.582;2023-03-14T15:13:31;9.30;99.90
20829;DHT22;10575;50.124;8.582;2023-03-14T15:15:57;9.40;99.90
20829;DHT22;10575;50.124;8.582;2023-03-14T15:18:24;9.20;99.90
20829;DHT22;10575;50.124;8.582;2023-03-14T15:20:50;9.10;99.90
20829;DHT22;10575;50.124;8.582;2023-03-14T15:23:18;9.00;99.90
20829;DHT22;10575;50.124;8.582;2023-03-14T15:25:44;8.90;99.90
20829;DHT22;10575;50.124;8.582;2023-03-14T15:28:21;9.00;99.90
20829;DHT22;10575;50.124;8.582;2023-03-14T15:30:48;9.00;99.90
20829;DHT22;10575;50.124;8.582;2023-03-14T15:33:14;9.00;99.90
20829;DHT22;10575;50.124;8.582;2023-03-14T15:35:40;8.90;99.90
20829;DHT22;10575;50.124;8.582;2023-03-14T15:38:10;8.80;99.90
20829;DHT22;10575;50.124;8.582;2023-03-14T15:40:36;8.90;99.90
20829;DHT22;10575;50.124;8.582;2023-03-14T15:43:01;9.00;99.90
20829;DHT22;10575;50.124;8.582;2023-03-14T15:45:27;9.10;99.90
20829;DHT22;10575;50.124;8.582;2023-03-14T15:47:53;9.20;99.90
20829;DHT22;10575;50.124;8.582;2023-03-14T15:50:18;9.30;99.90
20829;DHT22;10575;50.124;8.582;2023-03-14T15:52:44;9.40;99.90
20829;DHT22;10575;50.124;8.582;2023-03-14T15:55:10;9.30;99.90
20829;DHT22;10575;50.124;8.582;2023-03-14T15:57:36;9.30;99.90
20829;DHT22;10575;50.124;8.582;2023-03-14T16:00:03;9.40;99.90
20829;DHT22;10575;50.124;8.582;2023-03-14T16:02:29;9.50;99.90
20829;DHT22;10575;50.124;8.582;2023-03-14T16:04:55;9.40;99.90
20829;DHT22;10575;50.124;8.582;2023-03-14T16:07:21;9.20;99.90
20829;DHT22;10575;50.124;8.582;2023-03-14T16:09:47;8.90;99.90
20829;DHT22;10575;50.124;8.582;2023-03-14T16:12:12;8.90;99.90
20829;DHT22;10575;50.124;8.582;2023-03-14T16:14:38;8.80;99.90
20829;DHT22;10575;50.124;8.582;2023-03-14T16:17:07;8.80;99.90
20829;DHT22;10575;50.124;8.582;2023-03-14T16:19:36;8.80;99.90
20829;DHT22;10575;50.124;8.582;2023-03-14T16:22:01;8.70;99.90
20829;DHT22;10575;50.124;8.582;2023-03-14T16:24:27;8.80;99.90
20829;DHT22;10575;50.124;8.582;2023-03-14T16:26:53;8.70;99.90
20829;DHT22;10575;50.124;8.582;2023-03-14T16:29:18;8.60;99.90
20829;DHT22;10575;50.124;8.582;2023-03-14T16:31:44;8.50;99.90
20829;DHT22;10575;50.124;8.582;2023-03-14T16:34:15;8.40;99.90
20829;DHT22;10575;50.124;8.582;2023-03-14T16:36:44;8.40;99.90